KWDG/WDG METAR and TAF weather

Enter ICAO airport designator
Station Type Date Time Source
KWDG METAR 2019/06/16 12:45 UTC NOAA

KWDG 161245Z 29003KT 4SM RA SCT005 BKN039 OVC070 19/19 A2990


Station Type Date Time Source
KWDG Decoded METAR 2019/06/16 12:45 UTC NOAA

Enid, Enid Woodring Regional Airport, OK, United States (KWDG) 36-22-45N 097-47-28W
Jun 16, 2019 - 08:45 AM EDT / 2019.06.16 1245 UTC
Wind: from the WNW (290 degrees) at 3 MPH (3 KT):0
Visibility: 4 mile(s):0
Sky conditions: overcast
Weather: rain
Temperature: 66 F (19 C)
Dew Point: 66 F (19 C)
Relative Humidity: 100%
Pressure (altimeter): 29.9 in. Hg (1012 hPa)
ob: KWDG 161245Z 29003KT 4SM RA SCT005 BKN039 OVC070 19/19 A2990
cycle: 13

Station Type Date Time Source
KWDG TAF UTC NOAA

Error!

Example: see airport list